KEST/EST METAR and TAF weather

Enter ICAO airport designator
Station Type Date Time Source
KEST METAR 2020/03/28 08:52 UTC NOAA

KEST 280852Z AUTO 05015KT 10SM OVC005 06/05 A2967 RMK AO2 CIG 004V009 SLP054 T00560050 58017


Station Type Date Time Source
KEST Decoded METAR 2020/03/28 08:52 UTC NOAA

ESTHERVILLE MUNICIPAL AIRPORT , IA, United States (KEST) 43-24N 94-45W 401M
Mar 28, 2020 - 04:52 AM EDT / 2020.03.28 0852 UTC
Wind: from the NE (050 degrees) at 17 MPH (15 KT):0
Visibility: 10 mile(s):0
Sky conditions: overcast
Temperature: 42.1 F (5.6 C)
Dew Point: 41.0 F (5.0 C)
Relative Humidity: 95%
Pressure (altimeter): 29.67 in. Hg (1004 hPa)
Pressure tendency: 0.05 inches (1.7 hPa) lower than three hours ago
ob: KEST 280852Z AUTO 05015KT 10SM OVC005 06/05 A2967 RMK AO2 CIG 004V009 SLP054 T00560050 58017
cycle: 9

Station Type Date Time Source
KEST TAF UTC NOAA

Error!

Example: see airport list